sensor_id;sensor_type;location;lat;lon;timestamp;temperature;humidity
68385;DHT22;55336;43.062;25.626;2023-02-18T00:01:34;-2.30;99.90
68385;DHT22;55336;43.062;25.626;2023-02-18T00:04:03;-2.30;99.90
68385;DHT22;55336;43.062;25.626;2023-02-18T00:06:32;-2.30;99.90
68385;DHT22;55336;43.062;25.626;2023-02-18T00:09:04;-2.30;99.90
68385;DHT22;55336;43.062;25.626;2023-02-18T00:11:34;-1.90;99.90
68385;DHT22;55336;43.062;25.626;2023-02-18T00:14:04;-2.20;99.90
68385;DHT22;55336;43.062;25.626;2023-02-18T00:16:35;-2.40;99.90
68385;DHT22;55336;43.062;25.626;2023-02-18T00:19:06;-2.40;99.90
68385;DHT22;55336;43.062;25.626;2023-02-18T00:21:34;-2.40;99.90
68385;DHT22;55336;43.062;25.626;2023-02-18T00:24:05;-2.40;99.90
68385;DHT22;55336;43.062;25.626;2023-02-18T00:26:35;-2.50;99.90
68385;DHT22;55336;43.062;25.626;2023-02-18T00:29:01;-2.50;99.90
68385;DHT22;55336;43.062;25.626;2023-02-18T00:31:30;-2.50;99.90
68385;DHT22;55336;43.062;25.626;2023-02-18T00:34:03;-2.50;99.90
68385;DHT22;55336;43.062;25.626;2023-02-18T00:36:34;-2.50;99.90
68385;DHT22;55336;43.062;25.626;2023-02-18T00:39:06;-2.50;99.90
68385;DHT22;55336;43.062;25.626;2023-02-18T00:41:33;-2.50;99.90
68385;DHT22;55336;43.062;25.626;2023-02-18T00:44:00;-2.50;99.90
68385;DHT22;55336;43.062;25.626;2023-02-18T00:46:29;-2.50;99.90
68385;DHT22;55336;43.062;25.626;2023-02-18T00:49:01;-2.50;99.90
68385;DHT22;55336;43.062;25.626;2023-02-18T00:51:33;-2.40;99.90
68385;DHT22;55336;43.062;25.626;2023-02-18T00:54:09;-2.40;99.90
68385;DHT22;55336;43.062;25.626;2023-02-18T00:56:38;-2.40;99.90
68385;DHT22;55336;43.062;25.626;2023-02-18T00:59:05;-2.40;99.90
68385;DHT22;55336;43.062;25.626;2023-02-18T01:01:31;-2.40;99.90
68385;DHT22;55336;43.062;25.626;2023-02-18T01:04:03;-2.40;99.90
68385;DHT22;55336;43.062;25.626;2023-02-18T01:06:30;-2.40;99.90
68385;DHT22;55336;43.062;25.626;2023-02-18T01:09:00;-2.50;99.90
68385;DHT22;55336;43.062;25.626;2023-02-18T01:11:34;-2.50;99.90
68385;DHT22;55336;43.062;25.626;2023-02-18T01:14:01;-2.50;99.90
68385;DHT22;55336;43.062;25.626;2023-02-18T01:16:33;-2.50;99.90
68385;DHT22;55336;43.062;25.626;2023-02-18T01:19:05;-2.50;99.90
68385;DHT22;55336;43.062;25.626;2023-02-18T01:21:36;-2.50;99.90
68385;DHT22;55336;43.062;25.626;2023-02-18T01:24:05;-2.50;99.90
68385;DHT22;55336;43.062;25.626;2023-02-18T01:26:31;-2.50;99.90
68385;DHT22;55336;43.062;25.626;2023-02-18T01:28:58;-2.50;99.90
68385;DHT22;55336;43.062;25.626;2023-02-18T01:31:26;-2.50;99.90
68385;DHT22;55336;43.062;25.626;2023-02-18T01:33:52;-2.50;99.90
68385;DHT22;55336;43.062;25.626;2023-02-18T01:36:19;-2.60;99.90
68385;DHT22;55336;43.062;25.626;2023-02-18T01:38:46;-2.60;99.90
68385;DHT22;55336;43.062;25.626;2023-02-18T01:41:18;-3.00;99.90
68385;DHT22;55336;43.062;25.626;2023-02-18T01:43:44;-2.70;99.90
68385;DHT22;55336;43.062;25.626;2023-02-18T01:46:17;-2.70;99.90
68385;DHT22;55336;43.062;25.626;2023-02-18T01:48:58;-2.70;99.90
68385;DHT22;55336;43.062;25.626;2023-02-18T01:51:31;-2.70;99.90
68385;DHT22;55336;43.062;25.626;2023-02-18T01:54:15;-2.70;99.90
68385;DHT22;55336;43.062;25.626;2023-02-18T01:59:20;-2.60;99.90
68385;DHT22;55336;43.062;25.626;2023-02-18T02:01:54;-2.70;99.90
68385;DHT22;55336;43.062;25.626;2023-02-18T02:04:23;-2.70;99.90
68385;DHT22;55336;43.062;25.626;2023-02-18T02:06:53;-2.70;99.90
68385;DHT22;55336;43.062;25.626;2023-02-18T02:09:25;-2.70;99.90
68385;DHT22;55336;43.062;25.626;2023-02-18T02:12:42;-2.70;99.90
68385;DHT22;55336;43.062;25.626;2023-02-18T02:27:14;-2.60;99.90
68385;DHT22;55336;43.062;25.626;2023-02-18T02:38:56;-2.70;99.90
68385;DHT22;55336;43.062;25.626;2023-02-18T02:41:37;-2.70;99.90
68385;DHT22;55336;43.062;25.626;2023-02-18T02:46:45;-2.70;99.90
68385;DHT22;55336;43.062;25.626;2023-02-18T02:49:25;-2.60;99.90
68385;DHT22;55336;43.062;25.626;2023-02-18T02:52:09;-2.60;99.90
68385;DHT22;55336;43.062;25.626;2023-02-18T02:54:45;-2.70;99.90
68385;DHT22;55336;43.062;25.626;2023-02-18T02:59:59;-2.70;99.90
68385;DHT22;55336;43.062;25.626;2023-02-18T03:03:08;-2.70;99.90
68385;DHT22;55336;43.062;25.626;2023-02-18T03:09:54;-2.60;99.90
68385;DHT22;55336;43.062;25.626;2023-02-18T03:18:01;-2.60;99.90
68385;DHT22;55336;43.062;25.626;2023-02-18T03:23:59;-2.60;99.90
68385;DHT22;55336;43.062;25.626;2023-02-18T03:26:25;-2.50;99.90
68385;DHT22;55336;43.062;25.626;2023-02-18T03:28:55;-2.70;99.90
68385;DHT22;55336;43.062;25.626;2023-02-18T03:31:28;-2.40;99.90
68385;DHT22;55336;43.062;25.626;2023-02-18T03:34:14;-2.50;99.90
68385;DHT22;55336;43.062;25.626;2023-02-18T03:36:46;-2.50;99.90
68385;DHT22;55336;43.062;25.626;2023-02-18T03:39:18;-2.40;99.90
68385;DHT22;55336;43.062;25.626;2023-02-18T03:41:54;-2.40;99.90
68385;DHT22;55336;43.062;25.626;2023-02-18T03:44:32;-2.40;99.90
68385;DHT22;55336;43.062;25.626;2023-02-18T03:47:08;-2.40;99.90
68385;DHT22;55336;43.062;25.626;2023-02-18T03:49:42;-2.50;99.90
68385;DHT22;55336;43.062;25.626;2023-02-18T03:52:15;-2.20;99.90
68385;DHT22;55336;43.062;25.626;2023-02-18T03:54:46;-2.20;99.90
68385;DHT22;55336;43.062;25.626;2023-02-18T03:57:21;-2.20;99.90
68385;DHT22;55336;43.062;25.626;2023-02-18T03:59:49;-2.10;99.90
68385;DHT22;55336;43.062;25.626;2023-02-18T04:02:18;-2.00;99.90
68385;DHT22;55336;43.062;25.626;2023-02-18T04:04:44;-2.00;99.90
68385;DHT22;55336;43.062;25.626;2023-02-18T04:07:28;-2.00;99.90
68385;DHT22;55336;43.062;25.626;2023-02-18T04:10:05;-1.90;99.90
68385;DHT22;55336;43.062;25.626;2023-02-18T04:12:45;-1.90;99.90
68385;DHT22;55336;43.062;25.626;2023-02-18T04:15:17;-1.90;99.90
68385;DHT22;55336;43.062;25.626;2023-02-18T04:17:47;-1.90;99.90
68385;DHT22;55336;43.062;25.626;2023-02-18T04:20:13;-2.00;99.90
68385;DHT22;55336;43.062;25.626;2023-02-18T04:22:47;-2.00;99.90
68385;DHT22;55336;43.062;25.626;2023-02-18T04:25:18;-2.00;99.90
68385;DHT22;55336;43.062;25.626;2023-02-18T04:27:47;-2.00;99.90
68385;DHT22;55336;43.062;25.626;2023-02-18T04:32:44;-1.70;99.90
68385;DHT22;55336;43.062;25.626;2023-02-18T04:35:13;-2.00;99.90
68385;DHT22;55336;43.062;25.626;2023-02-18T04:37:42;-2.30;99.90
68385;DHT22;55336;43.062;25.626;2023-02-18T04:40:11;-2.10;99.90
68385;DHT22;55336;43.062;25.626;2023-02-18T04:42:43;-2.10;99.90
68385;DHT22;55336;43.062;25.626;2023-02-18T04:45:32;-2.10;99.90
68385;DHT22;55336;43.062;25.626;2023-02-18T04:48:06;-2.20;99.90
68385;DHT22;55336;43.062;25.626;2023-02-18T04:50:40;-2.10;99.90
68385;DHT22;55336;43.062;25.626;2023-02-18T04:53:11;-2.10;99.90
68385;DHT22;55336;43.062;25.626;2023-02-18T04:55:41;-2.10;99.90
68385;DHT22;55336;43.062;25.626;2023-02-18T04:58:10;-2.10;99.90
68385;DHT22;55336;43.062;25.626;2023-02-18T05:00:42;-2.00;99.90
68385;DHT22;55336;43.062;25.626;2023-02-18T05:03:13;-2.10;99.90
68385;DHT22;55336;43.062;25.626;2023-02-18T05:05:44;-2.00;99.90
68385;DHT22;55336;43.062;25.626;2023-02-18T05:08:17;-2.00;99.90
68385;DHT22;55336;43.062;25.626;2023-02-18T05:10:51;-2.00;99.90
68385;DHT22;55336;43.062;25.626;2023-02-18T05:13:21;-1.90;99.90
68385;DHT22;55336;43.062;25.626;2023-02-18T05:15:52;-1.90;99.90
68385;DHT22;55336;43.062;25.626;2023-02-18T05:18:21;-1.90;99.90
68385;DHT22;55336;43.062;25.626;2023-02-18T05:20:51;-1.60;99.90
68385;DHT22;55336;43.062;25.626;2023-02-18T05:23:17;-1.80;99.90
68385;DHT22;55336;43.062;25.626;2023-02-18T05:26:04;-1.70;99.90
68385;DHT22;55336;43.062;25.626;2023-02-18T05:28:35;-1.60;99.90
68385;DHT22;55336;43.062;25.626;2023-02-18T05:31:04;-1.50;99.90
68385;DHT22;55336;43.062;25.626;2023-02-18T05:33:36;-1.40;99.90
68385;DHT22;55336;43.062;25.626;2023-02-18T05:36:13;-1.30;99.90
68385;DHT22;55336;43.062;25.626;2023-02-18T05:38:43;-1.20;99.90
68385;DHT22;55336;43.062;25.626;2023-02-18T05:41:16;-1.10;99.90
68385;DHT22;55336;43.062;25.626;2023-02-18T05:43:45;-1.00;99.90
68385;DHT22;55336;43.062;25.626;2023-02-18T05:46:30;-0.90;99.90
68385;DHT22;55336;43.062;25.626;2023-02-18T05:48:57;-0.70;99.90
68385;DHT22;55336;43.062;25.626;2023-02-18T05:51:26;-0.80;99.90
68385;DHT22;55336;43.062;25.626;2023-02-18T05:54:00;-0.50;99.90
68385;DHT22;55336;43.062;25.626;2023-02-18T05:56:32;-0.40;99.90
68385;DHT22;55336;43.062;25.626;2023-02-18T05:59:19;-0.30;99.90
68385;DHT22;55336;43.062;25.626;2023-02-18T06:01:45;-0.30;99.90
68385;DHT22;55336;43.062;25.626;2023-02-18T06:04:14;-0.20;99.90
68385;DHT22;55336;43.062;25.626;2023-02-18T06:06:48;-0.10;99.90
68385;DHT22;55336;43.062;25.626;2023-02-18T06:09:25;0.00;99.90
68385;DHT22;55336;43.062;25.626;2023-02-18T06:12:08;0.20;99.90
68385;DHT22;55336;43.062;25.626;2023-02-18T06:14:35;0.30;99.90
68385;DHT22;55336;43.062;25.626;2023-02-18T06:17:11;0.50;99.90
68385;DHT22;55336;43.062;25.626;2023-02-18T06:19:38;0.60;99.90
68385;DHT22;55336;43.062;25.626;2023-02-18T06:22:11;0.70;99.90
68385;DHT22;55336;43.062;25.626;2023-02-18T06:24:40;0.90;99.90
68385;DHT22;55336;43.062;25.626;2023-02-18T06:27:14;1.00;99.90
68385;DHT22;55336;43.062;25.626;2023-02-18T06:29:43;1.10;99.90
68385;DHT22;55336;43.062;25.626;2023-02-18T06:32:12;1.20;99.90
68385;DHT22;55336;43.062;25.626;2023-02-18T06:34:43;1.40;99.90
68385;DHT22;55336;43.062;25.626;2023-02-18T06:37:10;1.60;99.90
68385;DHT22;55336;43.062;25.626;2023-02-18T06:39:40;1.60;99.90
68385;DHT22;55336;43.062;25.626;2023-02-18T06:42:11;1.80;99.90
68385;DHT22;55336;43.062;25.626;2023-02-18T06:44:41;1.90;99.90
68385;DHT22;55336;43.062;25.626;2023-02-18T06:47:10;2.00;99.90
68385;DHT22;55336;43.062;25.626;2023-02-18T06:49:46;2.20;99.90
68385;DHT22;55336;43.062;25.626;2023-02-18T06:52:12;2.30;99.90
68385;DHT22;55336;43.062;25.626;2023-02-18T06:54:43;2.30;99.90
68385;DHT22;55336;43.062;25.626;2023-02-18T06:57:09;2.40;99.90
68385;DHT22;55336;43.062;25.626;2023-02-18T06:59:38;2.60;99.90
68385;DHT22;55336;43.062;25.626;2023-02-18T07:02:08;2.70;99.90
68385;DHT22;55336;43.062;25.626;2023-02-18T07:04:35;2.60;99.90
68385;DHT22;55336;43.062;25.626;2023-02-18T07:07:02;2.60;99.90
68385;DHT22;55336;43.062;25.626;2023-02-18T07:09:31;2.90;99.90
68385;DHT22;55336;43.062;25.626;2023-02-18T07:11:59;2.80;99.90
68385;DHT22;55336;43.062;25.626;2023-02-18T07:14:28;3.00;99.90
68385;DHT22;55336;43.062;25.626;2023-02-18T07:16:55;3.10;99.90
68385;DHT22;55336;43.062;25.626;2023-02-18T07:19:23;3.10;99.90
68385;DHT22;55336;43.062;25.626;2023-02-18T07:21:53;3.30;99.90
68385;DHT22;55336;43.062;25.626;2023-02-18T07:24:25;3.50;99.90
68385;DHT22;55336;43.062;25.626;2023-02-18T07:26:51;3.50;99.90
68385;DHT22;55336;43.062;25.626;2023-02-18T07:29:17;3.80;99.90
68385;DHT22;55336;43.062;25.626;2023-02-18T07:31:43;4.00;99.90
68385;DHT22;55336;43.062;25.626;2023-02-18T07:34:10;4.10;99.90
68385;DHT22;55336;43.062;25.626;2023-02-18T07:36:41;4.40;99.90
68385;DHT22;55336;43.062;25.626;2023-02-18T07:39:08;4.60;99.90
68385;DHT22;55336;43.062;25.626;2023-02-18T07:41:37;4.80;99.90
68385;DHT22;55336;43.062;25.626;2023-02-18T07:44:18;5.20;99.90
68385;DHT22;55336;43.062;25.626;2023-02-18T07:46:47;5.70;99.90
68385;DHT22;55336;43.062;25.626;2023-02-18T07:49:14;5.70;99.90
68385;DHT22;55336;43.062;25.626;2023-02-18T07:51:40;5.80;99.90
68385;DHT22;55336;43.062;25.626;2023-02-18T07:54:09;6.00;99.90
68385;DHT22;55336;43.062;25.626;2023-02-18T07:56:38;6.30;99.90
68385;DHT22;55336;43.062;25.626;2023-02-18T07:59:07;6.50;99.90
68385;DHT22;55336;43.062;25.626;2023-02-18T08:01:34;6.50;99.90
68385;DHT22;55336;43.062;25.626;2023-02-18T08:04:05;6.80;99.90
68385;DHT22;55336;43.062;25.626;2023-02-18T08:06:39;7.10;99.90
68385;DHT22;55336;43.062;25.626;2023-02-18T08:09:05;7.70;99.90
68385;DHT22;55336;43.062;25.626;2023-02-18T08:11:38;8.10;99.90
68385;DHT22;55336;43.062;25.626;2023-02-18T08:14:05;8.60;99.90
68385;DHT22;55336;43.062;25.626;2023-02-18T08:16:31;9.10;99.90
68385;DHT22;55336;43.062;25.626;2023-02-18T08:19:00;9.20;99.20
68385;DHT22;55336;43.062;25.626;2023-02-18T08:21:28;9.70;99.90
68385;DHT22;55336;43.062;25.626;2023-02-18T08:23:58;9.40;97.50
68385;DHT22;55336;43.062;25.626;2023-02-18T08:26:28;9.50;91.50
68385;DHT22;55336;43.062;25.626;2023-02-18T08:28:57;9.60;85.50
68385;DHT22;55336;43.062;25.626;2023-02-18T08:31:28;9.80;85.30
68385;DHT22;55336;43.062;25.626;2023-02-18T08:34:00;10.00;83.60
68385;DHT22;55336;43.062;25.626;2023-02-18T08:36:31;10.20;83.00
68385;DHT22;55336;43.062;25.626;2023-02-18T08:38:58;10.30;82.00
68385;DHT22;55336;43.062;25.626;2023-02-18T08:41:27;10.50;81.40
68385;DHT22;55336;43.062;25.626;2023-02-18T08:43:55;10.70;81.10
68385;DHT22;55336;43.062;25.626;2023-02-18T08:46:27;10.90;76.40
68385;DHT22;55336;43.062;25.626;2023-02-18T08:48:59;11.30;75.00
68385;DHT22;55336;43.062;25.626;2023-02-18T08:51:28;11.50;72.50
68385;DHT22;55336;43.062;25.626;2023-02-18T08:54:09;11.70;72.30
68385;DHT22;55336;43.062;25.626;2023-02-18T08:56:41;11.80;71.50
68385;DHT22;55336;43.062;25.626;2023-02-18T08:59:12;12.10;69.70
68385;DHT22;55336;43.062;25.626;2023-02-18T09:01:43;12.20;70.20
68385;DHT22;55336;43.062;25.626;2023-02-18T09:04:12;12.60;69.90
68385;DHT22;55336;43.062;25.626;2023-02-18T09:06:38;13.20;70.10
68385;DHT22;55336;43.062;25.626;2023-02-18T09:09:07;13.40;66.50
68385;DHT22;55336;43.062;25.626;2023-02-18T09:11:35;13.30;64.70
68385;DHT22;55336;43.062;25.626;2023-02-18T09:14:02;13.40;65.00
68385;DHT22;55336;43.062;25.626;2023-02-18T09:16:31;13.30;65.80
68385;DHT22;55336;43.062;25.626;2023-02-18T09:18:57;13.50;64.50
68385;DHT22;55336;43.062;25.626;2023-02-18T09:21:24;13.60;64.20
68385;DHT22;55336;43.062;25.626;2023-02-18T09:23:51;14.00;63.50
68385;DHT22;55336;43.062;25.626;2023-02-18T09:26:20;15.00;61.60
68385;DHT22;55336;43.062;25.626;2023-02-18T09:28:48;16.10;59.40
68385;DHT22;55336;43.062;25.626;2023-02-18T09:31:17;16.50;55.20
68385;DHT22;55336;43.062;25.626;2023-02-18T09:33:49;16.70;54.20
68385;DHT22;55336;43.062;25.626;2023-02-18T09:36:18;17.00;52.60
68385;DHT22;55336;43.062;25.626;2023-02-18T09:38:45;17.10;50.80
68385;DHT22;55336;43.062;25.626;2023-02-18T09:41:38;17.10;52.30
68385;DHT22;55336;43.062;25.626;2023-02-18T09:44:36;17.30;50.50
68385;DHT22;55336;43.062;25.626;2023-02-18T09:47:13;18.00;49.00
68385;DHT22;55336;43.062;25.626;2023-02-18T09:49:44;18.30;45.00
68385;DHT22;55336;43.062;25.626;2023-02-18T09:52:19;18.30;45.00
68385;DHT22;55336;43.062;25.626;2023-02-18T09:54:51;18.20;44.40
68385;DHT22;55336;43.062;25.626;2023-02-18T09:57:21;18.30;43.00
68385;DHT22;55336;43.062;25.626;2023-02-18T09:59:56;18.80;42.40
68385;DHT22;55336;43.062;25.626;2023-02-18T10:02:23;19.30;43.50
68385;DHT22;55336;43.062;25.626;2023-02-18T10:04:53;19.60;40.50
68385;DHT22;55336;43.062;25.626;2023-02-18T10:07:35;19.10;41.70
68385;DHT22;55336;43.062;25.626;2023-02-18T10:10:20;19.10;42.90
68385;DHT22;55336;43.062;25.626;2023-02-18T10:12:53;19.10;42.40
68385;DHT22;55336;43.062;25.626;2023-02-18T10:15:22;18.60;42.50
68385;DHT22;55336;43.062;25.626;2023-02-18T10:17:58;18.10;42.80
68385;DHT22;55336;43.062;25.626;2023-02-18T10:20:33;18.10;43.20
68385;DHT22;55336;43.062;25.626;2023-02-18T10:23:00;17.90;43.10
68385;DHT22;55336;43.062;25.626;2023-02-18T10:25:27;18.30;43.80
68385;DHT22;55336;43.062;25.626;2023-02-18T10:27:57;18.40;43.10
68385;DHT22;55336;43.062;25.626;2023-02-18T10:30:52;18.20;43.30
68385;DHT22;55336;43.062;25.626;2023-02-18T10:36:20;18.30;42.60
68385;DHT22;55336;43.062;25.626;2023-02-18T10:42:37;18.20;43.10
68385;DHT22;55336;43.062;25.626;2023-02-18T10:45:27;18.30;42.60
68385;DHT22;55336;43.062;25.626;2023-02-18T10:48:22;18.40;43.60
68385;DHT22;55336;43.062;25.626;2023-02-18T10:50:49;18.60;43.10
68385;DHT22;55336;43.062;25.626;2023-02-18T10:53:40;18.20;43.90
68385;DHT22;55336;43.062;25.626;2023-02-18T10:56:12;18.20;43.40
68385;DHT22;55336;43.062;25.626;2023-02-18T10:59:00;18.40;42.70
68385;DHT22;55336;43.062;25.626;2023-02-18T11:01:35;18.60;42.00
68385;DHT22;55336;43.062;25.626;2023-02-18T11:04:15;18.70;42.20
68385;DHT22;55336;43.062;25.626;2023-02-18T11:06:43;18.30;42.60
68385;DHT22;55336;43.062;25.626;2023-02-18T11:09:26;18.40;42.00
68385;DHT22;55336;43.062;25.626;2023-02-18T11:12:28;18.20;42.00
68385;DHT22;55336;43.062;25.626;2023-02-18T11:15:16;18.10;42.60
68385;DHT22;55336;43.062;25.626;2023-02-18T11:17:48;18.20;42.00
68385;DHT22;55336;43.062;25.626;2023-02-18T11:20:30;18.20;41.90
68385;DHT22;55336;43.062;25.626;2023-02-18T11:23:31;18.20;41.70
68385;DHT22;55336;43.062;25.626;2023-02-18T11:26:20;18.40;41.70
68385;DHT22;55336;43.062;25.626;2023-02-18T11:29:19;18.40;41.40
68385;DHT22;55336;43.062;25.626;2023-02-18T11:31:59;18.00;41.30
68385;DHT22;55336;43.062;25.626;2023-02-18T11:34:41;18.00;40.90
68385;DHT22;55336;43.062;25.626;2023-02-18T11:37:21;18.10;40.60
68385;DHT22;55336;43.062;25.626;2023-02-18T11:39:52;18.00;41.70
68385;DHT22;55336;43.062;25.626;2023-02-18T11:42:25;18.00;41.30
68385;DHT22;55336;43.062;25.626;2023-02-18T11:44:58;17.60;41.20
68385;DHT22;55336;43.062;25.626;2023-02-18T11:47:34;18.10;41.50
68385;DHT22;55336;43.062;25.626;2023-02-18T11:50:15;18.20;41.10
68385;DHT22;55336;43.062;25.626;2023-02-18T11:52:50;18.20;41.70
68385;DHT22;55336;43.062;25.626;2023-02-18T11:55:29;18.40;42.70
68385;DHT22;55336;43.062;25.626;2023-02-18T11:58:08;18.20;41.80
68385;DHT22;55336;43.062;25.626;2023-02-18T12:00:43;18.20;43.10
68385;DHT22;55336;43.062;25.626;2023-02-18T12:06:49;18.00;43.00
68385;DHT22;55336;43.062;25.626;2023-02-18T12:09:30;17.90;43.20
68385;DHT22;55336;43.062;25.626;2023-02-18T12:12:05;17.90;44.00
68385;DHT22;55336;43.062;25.626;2023-02-18T12:14:35;17.90;43.70
68385;DHT22;55336;43.062;25.626;2023-02-18T12:23:40;18.00;45.50
68385;DHT22;55336;43.062;25.626;2023-02-18T12:26:20;17.90;44.70
68385;DHT22;55336;43.062;25.626;2023-02-18T12:42:59;17.90;48.90
68385;DHT22;55336;43.062;25.626;2023-02-18T13:00:02;18.90;48.50
68385;DHT22;55336;43.062;25.626;2023-02-18T13:13:36;18.30;49.70
68385;DHT22;55336;43.062;25.626;2023-02-18T13:16:09;18.20;49.90
68385;DHT22;55336;43.062;25.626;2023-02-18T13:21:22;18.00;50.80
68385;DHT22;55336;43.062;25.626;2023-02-18T13:24:02;18.20;50.60
68385;DHT22;55336;43.062;25.626;2023-02-18T13:26:32;18.10;51.50
68385;DHT22;55336;43.062;25.626;2023-02-18T13:29:21;18.10;51.90
68385;DHT22;55336;43.062;25.626;2023-02-18T13:37:57;18.10;52.30
68385;DHT22;55336;43.062;25.626;2023-02-18T13:40:29;18.20;52.20
68385;DHT22;55336;43.062;25.626;2023-02-18T13:49:04;18.50;51.30
68385;DHT22;55336;43.062;25.626;2023-02-18T13:51:41;18.50;51.20
68385;DHT22;55336;43.062;25.626;2023-02-18T13:56:53;18.50;51.00
68385;DHT22;55336;43.062;25.626;2023-02-18T14:01:51;18.70;51.40
68385;DHT22;55336;43.062;25.626;2023-02-18T14:09:50;18.60;51.20
68385;DHT22;55336;43.062;25.626;2023-02-18T14:14:52;18.70;51.10
68385;DHT22;55336;43.062;25.626;2023-02-18T14:22:48;18.50;51.20
68385;DHT22;55336;43.062;25.626;2023-02-18T14:27:50;18.20;52.10
68385;DHT22;55336;43.062;25.626;2023-02-18T14:30:25;18.30;53.10
68385;DHT22;55336;43.062;25.626;2023-02-18T14:32:59;18.30;52.20
68385;DHT22;55336;43.062;25.626;2023-02-18T14:35:51;18.50;52.10
68385;DHT22;55336;43.062;25.626;2023-02-18T14:44:27;19.00;51.70
68385;DHT22;55336;43.062;25.626;2023-02-18T14:49:56;18.80;51.00
68385;DHT22;55336;43.062;25.626;2023-02-18T14:52:56;18.60;51.90
68385;DHT22;55336;43.062;25.626;2023-02-18T14:55:39;18.70;51.80
68385;DHT22;55336;43.062;25.626;2023-02-18T14:58:29;18.70;52.10
68385;DHT22;55336;43.062;25.626;2023-02-18T15:01:16;18.70;51.80
68385;DHT22;55336;43.062;25.626;2023-02-18T15:03:48;18.10;52.80
68385;DHT22;55336;43.062;25.626;2023-02-18T15:06:33;17.90;52.40
68385;DHT22;55336;43.062;25.626;2023-02-18T15:09:14;17.60;53.40
68385;DHT22;55336;43.062;25.626;2023-02-18T15:11:56;17.40;53.70
68385;DHT22;55336;43.062;25.626;2023-02-18T15:14:37;17.10;54.70
68385;DHT22;55336;43.062;25.626;2023-02-18T15:17:04;16.90;55.10
68385;DHT22;55336;43.062;25.626;2023-02-18T15:19:39;16.70;55.60
68385;DHT22;55336;43.062;25.626;2023-02-18T15:22:14;16.60;56.00
68385;DHT22;55336;43.062;25.626;2023-02-18T15:24:40;16.40;55.50
68385;DHT22;55336;43.062;25.626;2023-02-18T15:27:24;16.20;56.70
68385;DHT22;55336;43.062;25.626;2023-02-18T15:29:56;16.10;56.90
68385;DHT22;55336;43.062;25.626;2023-02-18T15:32:26;16.00;57.30
68385;DHT22;55336;43.062;25.626;2023-02-18T15:35:02;15.80;57.60
68385;DHT22;55336;43.062;25.626;2023-02-18T15:37:29;15.70;57.60
68385;DHT22;55336;43.062;25.626;2023-02-18T15:39:55;15.70;57.80
68385;DHT22;55336;43.062;25.626;2023-02-18T15:42:30;15.50;58.00
68385;DHT22;55336;43.062;25.626;2023-02-18T15:45:13;15.30;58.50
68385;DHT22;55336;43.062;25.626;2023-02-18T15:47:44;15.20;58.90
68385;DHT22;55336;43.062;25.626;2023-02-18T15:50:18;15.10;58.60
68385;DHT22;55336;43.062;25.626;2023-02-18T15:52:45;15.00;59.50
68385;DHT22;55336;43.062;25.626;2023-02-18T15:55:18;14.80;59.90
68385;DHT22;55336;43.062;25.626;2023-02-18T15:57:50;14.70;60.40
68385;DHT22;55336;43.062;25.626;2023-02-18T16:00:20;14.90;59.40
68385;DHT22;55336;43.062;25.626;2023-02-18T16:05:38;14.80;59.30
68385;DHT22;55336;43.062;25.626;2023-02-18T16:08:14;14.70;59.70
68385;DHT22;55336;43.062;25.626;2023-02-18T16:10:56;14.50;60.10
68385;DHT22;55336;43.062;25.626;2023-02-18T16:13:25;14.30;60.90
68385;DHT22;55336;43.062;25.626;2023-02-18T16:15:51;14.10;61.10
68385;DHT22;55336;43.062;25.626;2023-02-18T16:18:29;14.20;61.10
68385;DHT22;55336;43.062;25.626;2023-02-18T16:21:02;14.00;61.30
68385;DHT22;55336;43.062;25.626;2023-02-18T16:23:41;13.90;61.60
68385;DHT22;55336;43.062;25.626;2023-02-18T16:26:26;13.70;62.00
68385;DHT22;55336;43.062;25.626;2023-02-18T16:28:53;13.50;62.50
68385;DHT22;55336;43.062;25.626;2023-02-18T16:31:20;13.30;63.10
68385;DHT22;55336;43.062;25.626;2023-02-18T16:33:48;13.40;63.00
68385;DHT22;55336;43.062;25.626;2023-02-18T16:36:15;13.10;62.60
68385;DHT22;55336;43.062;25.626;2023-02-18T16:38:42;13.60;62.60
68385;DHT22;55336;43.062;25.626;2023-02-18T16:41:11;13.50;62.30
68385;DHT22;55336;43.062;25.626;2023-02-18T16:43:38;13.50;62.80
68385;DHT22;55336;43.062;25.626;2023-02-18T16:46:16;13.50;62.80
68385;DHT22;55336;43.062;25.626;2023-02-18T16:48:45;13.60;62.10
68385;DHT22;55336;43.062;25.626;2023-02-18T16:51:19;13.70;62.00
68385;DHT22;55336;43.062;25.626;2023-02-18T16:53:47;13.70;62.00
68385;DHT22;55336;43.062;25.626;2023-02-18T16:56:15;13.60;62.90
68385;DHT22;55336;43.062;25.626;2023-02-18T16:58:42;13.30;63.50
68385;DHT22;55336;43.062;25.626;2023-02-18T17:01:25;13.40;62.60
68385;DHT22;55336;43.062;25.626;2023-02-18T17:03:52;13.40;63.30
68385;DHT22;55336;43.062;25.626;2023-02-18T17:06:18;13.40;62.70
68385;DHT22;55336;43.062;25.626;2023-02-18T17:08:44;13.30;62.90
68385;DHT22;55336;43.062;25.626;2023-02-18T17:11:19;13.10;63.10
68385;DHT22;55336;43.062;25.626;2023-02-18T17:13:47;12.90;64.60
68385;DHT22;55336;43.062;25.626;2023-02-18T17:16:13;13.20;63.20
68385;DHT22;55336;43.062;25.626;2023-02-18T17:18:39;13.10;62.70
68385;DHT22;55336;43.062;25.626;2023-02-18T17:21:17;12.90;63.50
68385;DHT22;55336;43.062;25.626;2023-02-18T17:23:43;12.70;64.50
68385;DHT22;55336;43.062;25.626;2023-02-18T17:26:15;12.50;64.80
68385;DHT22;55336;43.062;25.626;2023-02-18T17:28:41;12.40;64.80
68385;DHT22;55336;43.062;25.626;2023-02-18T17:31:07;12.10;65.00
68385;DHT22;55336;43.062;25.626;2023-02-18T17:33:35;12.20;65.20
68385;DHT22;55336;43.062;25.626;2023-02-18T17:36:01;12.20;66.00
68385;DHT22;55336;43.062;25.626;2023-02-18T17:38:27;12.00;66.00
68385;DHT22;55336;43.062;25.626;2023-02-18T17:40:53;11.80;67.90
68385;DHT22;55336;43.062;25.626;2023-02-18T17:43:21;12.50;65.80
68385;DHT22;55336;43.062;25.626;2023-02-18T17:45:51;12.00;67.10
68385;DHT22;55336;43.062;25.626;2023-02-18T17:48:18;11.80;67.90
68385;DHT22;55336;43.062;25.626;2023-02-18T17:50:44;11.60;68.20
68385;DHT22;55336;43.062;25.626;2023-02-18T17:53:10;11.50;68.60
68385;DHT22;55336;43.062;25.626;2023-02-18T17:55:37;11.50;69.20
68385;DHT22;55336;43.062;25.626;2023-02-18T17:58:03;11.30;69.40
68385;DHT22;55336;43.062;25.626;2023-02-18T18:00:31;11.10;70.50
68385;DHT22;55336;43.062;25.626;2023-02-18T18:02:57;11.00;71.00
68385;DHT22;55336;43.062;25.626;2023-02-18T18:05:32;10.80;72.60
68385;DHT22;55336;43.062;25.626;2023-02-18T18:07:59;10.90;72.30
68385;DHT22;55336;43.062;25.626;2023-02-18T18:10:28;10.80;73.10
68385;DHT22;55336;43.062;25.626;2023-02-18T18:13:02;10.80;73.00
68385;DHT22;55336;43.062;25.626;2023-02-18T18:15:34;11.00;72.50
68385;DHT22;55336;43.062;25.626;2023-02-18T18:18:00;10.90;72.60
68385;DHT22;55336;43.062;25.626;2023-02-18T18:20:28;10.80;72.70